createdAt,value
2023-03-06T00:00:37.127Z,4.20
2023-03-06T00:03:03.681Z,3.10
2023-03-06T00:05:30.083Z,4.07
2023-03-06T00:07:56.403Z,2.58
2023-03-06T00:10:26.647Z,5.32
2023-03-06T00:12:53.429Z,5.72
2023-03-06T00:15:19.982Z,3.47
2023-03-06T00:17:46.252Z,3.15
2023-03-06T00:20:13.310Z,2.78
2023-03-06T00:22:39.985Z,4.07
2023-03-06T00:25:06.921Z,11.52
2023-03-06T00:27:33.505Z,14.60
2023-03-06T00:30:00.431Z,7.32
2023-03-06T00:32:27.180Z,3.58
2023-03-06T00:34:54.431Z,4.00
2023-03-06T00:37:21.170Z,7.32
2023-03-06T00:39:49.464Z,6.43
2023-03-06T00:42:16.212Z,2.58
2023-03-06T00:44:42.614Z,8.23
2023-03-06T00:47:08.991Z,5.63
2023-03-06T00:49:35.516Z,4.18
2023-03-06T00:52:02.148Z,3.83
2023-03-06T00:54:28.657Z,3.67
2023-03-06T00:56:54.973Z,5.85
2023-03-06T00:59:21.311Z,4.85
2023-03-06T01:01:47.571Z,5.10
2023-03-06T01:04:14.580Z,2.33
2023-03-06T01:06:40.946Z,3.92
2023-03-06T01:09:07.298Z,2.38
2023-03-06T01:11:33.608Z,5.88
2023-03-06T01:14:00.023Z,4.60
2023-03-06T01:16:26.502Z,3.83
2023-03-06T01:18:52.790Z,4.38
2023-03-06T01:21:19.553Z,2.38
2023-03-06T01:23:46.050Z,4.93
2023-03-06T01:26:12.360Z,4.03
2023-03-06T01:28:39.204Z,2.78
2023-03-06T01:31:05.726Z,5.07
2023-03-06T01:33:32.347Z,5.20
2023-03-06T01:35:58.675Z,3.58
2023-03-06T01:38:25.023Z,4.07
2023-03-06T01:40:51.578Z,6.22
2023-03-06T01:43:28.301Z,7.28
2023-03-06T01:46:23.901Z,5.85
2023-03-06T01:48:52.110Z,6.27
2023-03-06T01:51:18.558Z,5.60
2023-03-06T01:53:45.628Z,4.50
2023-03-06T01:56:13.137Z,3.78
2023-03-06T01:58:40.151Z,7.93
2023-03-06T02:01:06.509Z,7.93
2023-03-06T02:03:33.636Z,6.05
2023-03-06T02:05:59.930Z,10.05
2023-03-06T02:08:26.547Z,5.57
2023-03-06T02:10:58.039Z,6.03
2023-03-06T02:13:24.496Z,5.13
2023-03-06T02:15:50.759Z,6.45
2023-03-06T02:18:17.179Z,7.20
2023-03-06T02:20:46.069Z,6.72
2023-03-06T02:23:27.065Z,7.47
2023-03-06T02:25:53.790Z,5.35
2023-03-06T02:28:21.137Z,7.82
2023-03-06T02:30:48.284Z,5.55
2023-03-06T02:33:15.452Z,7.80
2023-03-06T02:35:46.139Z,6.75
2023-03-06T02:38:14.653Z,7.43
2023-03-06T02:40:43.387Z,8.02
2023-03-06T02:43:10.849Z,9.07
2023-03-06T02:45:44.413Z,10.35
2023-03-06T02:48:12.640Z,7.88
2023-03-06T02:50:39.744Z,9.63
2023-03-06T02:53:07.105Z,8.98
2023-03-06T02:55:33.879Z,9.13
2023-03-06T02:58:00.380Z,11.63
2023-03-06T03:00:26.814Z,12.45
2023-03-06T03:02:53.533Z,11.82
2023-03-06T03:05:19.831Z,8.55
2023-03-06T03:07:46.094Z,9.73
2023-03-06T03:10:12.739Z,11.48
2023-03-06T03:12:39.390Z,11.15
2023-03-06T03:15:06.105Z,10.32
2023-03-06T03:17:34.955Z,9.77
2023-03-06T03:20:01.276Z,13.15
2023-03-06T03:22:27.580Z,10.13
2023-03-06T03:24:53.932Z,10.68
2023-03-06T03:27:20.206Z,11.23
2023-03-06T03:29:46.443Z,12.63
2023-03-06T03:32:12.780Z,8.30
2023-03-06T03:34:39.175Z,11.85
2023-03-06T03:37:05.560Z,9.82
2023-03-06T03:39:32.076Z,10.85
2023-03-06T03:41:58.435Z,11.43
2023-03-06T03:44:24.747Z,9.93
2023-03-06T03:46:51.096Z,9.43
2023-03-06T03:49:17.711Z,10.10
2023-03-06T03:51:44.012Z,12.25
2023-03-06T03:54:10.299Z,8.38
2023-03-06T03:56:36.732Z,8.57
2023-03-06T03:59:03.251Z,7.75
2023-03-06T04:01:29.660Z,9.90
2023-03-06T04:03:55.994Z,10.07
2023-03-06T04:06:22.360Z,6.95
2023-03-06T04:08:48.700Z,8.18
2023-03-06T04:11:15.105Z,6.68
2023-03-06T04:13:41.390Z,8.30
2023-03-06T04:16:07.773Z,7.85
2023-03-06T04:18:34.106Z,7.43
2023-03-06T04:21:00.846Z,10.45
2023-03-06T04:23:27.906Z,8.48
2023-03-06T04:25:54.221Z,9.60
2023-03-06T04:28:20.585Z,8.70
2023-03-06T04:30:46.872Z,9.30
2023-03-06T04:33:13.195Z,9.38
2023-03-06T04:35:39.472Z,8.85
2023-03-06T04:38:05.926Z,8.75
2023-03-06T04:40:33.623Z,10.02
2023-03-06T04:43:00.629Z,6.22
2023-03-06T04:45:27.946Z,7.50
2023-03-06T04:47:54.668Z,9.13
2023-03-06T04:50:21.861Z,7.45
2023-03-06T04:52:48.103Z,7.28
2023-03-06T04:55:15.372Z,12.07
2023-03-06T04:57:44.083Z,9.38
2023-03-06T05:00:15.390Z,6.65
2023-03-06T05:02:42.469Z,10.18
2023-03-06T05:05:09.396Z,6.03
2023-03-06T05:07:35.739Z,13.85
2023-03-06T05:10:02.221Z,6.35
2023-03-06T05:12:28.640Z,4.80
2023-03-06T05:14:55.023Z,6.07
2023-03-06T05:17:21.298Z,6.32
2023-03-06T05:19:47.604Z,9.70
2023-03-06T05:22:13.890Z,6.97
2023-03-06T05:24:40.155Z,5.22
2023-03-06T05:27:06.403Z,5.53
2023-03-06T05:29:32.659Z,5.15
2023-03-06T05:31:58.966Z,8.40
2023-03-06T05:34:25.272Z,4.07
2023-03-06T05:36:51.751Z,11.45
2023-03-06T05:39:18.077Z,7.85
2023-03-06T05:41:44.407Z,4.93
2023-03-06T05:44:10.635Z,5.15
2023-03-06T05:46:38.097Z,7.47
2023-03-06T05:49:04.335Z,6.15
2023-03-06T05:51:30.637Z,9.82
2023-03-06T05:53:56.911Z,8.57
2023-03-06T05:56:23.299Z,6.22
2023-03-06T05:58:50.855Z,5.63
2023-03-06T06:01:19.225Z,6.78
2023-03-06T06:03:45.849Z,4.38
2023-03-06T06:06:13.116Z,5.50
2023-03-06T06:08:39.863Z,5.00
2023-03-06T06:11:06.696Z,5.43
2023-03-06T06:13:33.233Z,5.72
2023-03-06T06:15:59.583Z,4.15
2023-03-06T06:18:26.025Z,4.05
2023-03-06T06:20:53.164Z,4.40
2023-03-06T06:23:20.789Z,4.70
2023-03-06T06:25:47.748Z,3.97
2023-03-06T06:28:13.998Z,5.47
2023-03-06T06:30:40.308Z,4.78
2023-03-06T06:33:06.628Z,2.88
2023-03-06T06:35:35.551Z,1.98
2023-03-06T06:38:02.091Z,3.75
2023-03-06T06:40:29.578Z,1.80
2023-03-06T06:42:55.901Z,5.90
2023-03-06T06:45:22.245Z,3.40
2023-03-06T06:47:49.668Z,7.18
2023-03-06T06:50:16.045Z,1.00
2023-03-06T06:52:42.611Z,2.72
2023-03-06T06:55:09.148Z,1.48
2023-03-06T06:57:35.424Z,2.38
2023-03-06T07:00:03.246Z,2.88
2023-03-06T07:02:29.601Z,1.33
2023-03-06T07:05:04.294Z,3.05
2023-03-06T07:07:33.335Z,4.32
2023-03-06T07:09:59.653Z,1.98
2023-03-06T07:12:26.025Z,4.13
2023-03-06T07:14:52.335Z,1.65
2023-03-06T07:17:18.643Z,1.63
2023-03-06T07:19:45.056Z,1.80
2023-03-06T07:22:11.665Z,6.57
2023-03-06T07:24:38.021Z,2.70
2023-03-06T07:27:04.381Z,4.30
2023-03-06T07:29:33.292Z,2.45
2023-03-06T07:31:59.830Z,1.10
2023-03-06T07:34:26.332Z,1.60
2023-03-06T07:36:52.666Z,1.00
2023-03-06T07:39:18.921Z,1.77
2023-03-06T07:41:45.319Z,3.13
2023-03-06T07:44:11.578Z,4.10
2023-03-06T07:46:38.095Z,1.17
2023-03-06T07:49:04.382Z,2.63
2023-03-06T07:51:30.799Z,1.15
2023-03-06T07:53:57.236Z,2.33
2023-03-06T07:56:23.574Z,2.58
2023-03-06T07:58:49.880Z,4.45
2023-03-06T08:01:17.889Z,1.00
2023-03-06T08:03:44.546Z,1.42
2023-03-06T08:06:20.860Z,3.80
2023-03-06T08:08:48.181Z,1.73
2023-03-06T08:11:15.065Z,1.02
2023-03-06T08:13:41.776Z,0.70
2023-03-06T08:16:08.829Z,1.27
2023-03-06T08:18:35.420Z,4.10
2023-03-06T08:21:13.329Z,1.80
2023-03-06T08:23:40.138Z,0.98
2023-03-06T08:26:11.995Z,2.47
2023-03-06T08:28:38.829Z,2.05
2023-03-06T08:31:09.574Z,1.45
2023-03-06T08:33:35.959Z,3.72
2023-03-06T08:36:02.555Z,0.80
2023-03-06T08:38:28.921Z,1.70
2023-03-06T08:40:55.270Z,2.25
2023-03-06T08:43:21.616Z,0.75
2023-03-06T08:45:54.643Z,1.40
2023-03-06T08:48:20.981Z,0.63
2023-03-06T08:50:47.843Z,1.60
2023-03-06T08:53:14.209Z,1.15
2023-03-06T08:55:40.700Z,0.85
2023-03-06T08:58:07.134Z,1.88
2023-03-06T09:00:33.616Z,2.83
2023-03-06T09:03:00.135Z,1.20
2023-03-06T09:05:26.834Z,0.50
2023-03-06T09:07:53.420Z,1.05
2023-03-06T09:10:20.952Z,1.48
2023-03-06T09:12:51.271Z,5.15
2023-03-06T09:15:19.835Z,0.52
2023-03-06T09:17:47.217Z,0.70
2023-03-06T09:20:14.091Z,0.52
2023-03-06T09:22:42.327Z,1.08
2023-03-06T09:25:10.082Z,2.78
2023-03-06T09:27:36.411Z,2.95
2023-03-06T09:30:03.288Z,1.52
2023-03-06T09:32:29.809Z,0.50
2023-03-06T09:34:56.134Z,0.52
2023-03-06T09:37:22.870Z,1.48
2023-03-06T09:39:49.178Z,0.55
2023-03-06T09:42:18.195Z,3.13
2023-03-06T09:44:47.403Z,0.60
2023-03-06T09:47:16.682Z,4.78
2023-03-06T09:49:53.299Z,1.27
2023-03-06T09:52:22.570Z,0.85
2023-03-06T09:54:51.754Z,4.43
2023-03-06T09:57:18.126Z,1.73
2023-03-06T09:59:47.405Z,4.55
2023-03-06T10:02:15.941Z,1.52
2023-03-06T10:04:44.091Z,2.45
2023-03-06T10:07:15.687Z,2.78
2023-03-06T10:09:48.237Z,0.98
2023-03-06T10:12:17.601Z,3.50
2023-03-06T10:14:47.773Z,1.15
2023-03-06T10:17:21.372Z,1.55
2023-03-06T10:19:48.156Z,1.13
2023-03-06T10:22:38.317Z,1.02
2023-03-06T10:25:20.101Z,3.60
2023-03-06T10:27:47.880Z,0.85
2023-03-06T10:30:26.773Z,0.55
2023-03-06T10:33:00.655Z,4.38
2023-03-06T10:35:33.567Z,4.40
2023-03-06T10:38:20.222Z,2.20
2023-03-06T10:40:51.746Z,1.75
2023-03-06T10:43:18.157Z,1.05
2023-03-06T10:45:49.742Z,1.55
2023-03-06T10:48:19.155Z,1.05
2023-03-06T10:50:45.409Z,0.82
2023-03-06T10:53:20.486Z,1.77
2023-03-06T10:55:59.858Z,1.83
2023-03-06T10:58:30.490Z,0.60
2023-03-06T11:01:05.438Z,0.55
2023-03-06T11:03:31.960Z,1.17
2023-03-06T11:06:01.714Z,1.05
2023-03-06T11:08:29.694Z,5.07
2023-03-06T11:11:04.475Z,1.77
2023-03-06T11:13:33.301Z,1.33
2023-03-06T11:16:01.286Z,0.80
2023-03-06T11:18:31.117Z,1.52
2023-03-06T11:20:57.747Z,2.30
2023-03-06T11:23:39.146Z,2.35
2023-03-06T11:26:17.527Z,0.73
2023-03-06T11:28:47.102Z,1.13
2023-03-06T11:31:18.529Z,0.77
2023-03-06T11:34:03.707Z,0.80
2023-03-06T11:36:39.118Z,1.13
2023-03-06T11:39:15.618Z,1.25
2023-03-06T11:41:44.728Z,1.73
2023-03-06T11:44:30.000Z,1.80
2023-03-06T11:47:14.663Z,0.77
2023-03-06T11:49:43.189Z,1.35
2023-03-06T11:52:32.511Z,2.17
2023-03-06T11:54:58.862Z,1.27
2023-03-06T11:57:30.120Z,1.35
2023-03-06T12:00:03.696Z,2.70
2023-03-06T12:02:29.951Z,1.60
2023-03-06T12:05:12.126Z,1.35
2023-03-06T12:07:48.472Z,3.50
2023-03-06T12:10:17.896Z,1.13
2023-03-06T12:12:51.821Z,3.05
2023-03-06T12:15:22.946Z,1.40
2023-03-06T12:17:57.928Z,2.33
2023-03-06T12:20:27.272Z,2.78
2023-03-06T12:23:14.608Z,1.25
2023-03-06T12:25:42.583Z,2.15
2023-03-06T12:28:09.205Z,9.75
2023-03-06T12:30:47.576Z,1.77
2023-03-06T12:33:24.846Z,4.15
2023-03-06T12:36:08.480Z,1.08
2023-03-06T12:38:46.156Z,3.17
2023-03-06T12:41:12.449Z,2.72
2023-03-06T12:43:47.922Z,2.35
2023-03-06T12:46:16.312Z,3.00
2023-03-06T12:48:45.048Z,3.08
2023-03-06T12:51:13.709Z,7.97
2023-03-06T12:53:40.875Z,6.85
2023-03-06T12:56:07.334Z,7.13
2023-03-06T12:58:33.918Z,4.72
2023-03-06T13:01:06.103Z,2.63
2023-03-06T13:03:51.210Z,2.08
2023-03-06T13:06:30.969Z,4.23
2023-03-06T13:09:03.466Z,3.92
2023-03-06T13:11:35.858Z,2.92
2023-03-06T13:14:21.008Z,6.10
2023-03-06T13:16:47.433Z,6.27
2023-03-06T13:19:16.565Z,5.03
2023-03-06T13:21:44.626Z,8.15
2023-03-06T13:24:22.335Z,5.75
2023-03-06T13:26:50.894Z,8.23
2023-03-06T13:29:39.037Z,6.57
2023-03-06T13:32:06.918Z,8.90
2023-03-06T13:34:47.039Z,9.63
2023-03-06T13:37:13.396Z,4.30
2023-03-06T13:39:54.874Z,13.63
2023-03-06T13:42:26.514Z,8.10
2023-03-06T13:44:53.141Z,9.00
2023-03-06T13:48:06.469Z,5.30
2023-03-06T13:50:29.091Z,6.95
2023-03-06T13:53:10.646Z,8.02
2023-03-06T13:55:49.505Z,6.88
2023-03-06T13:58:22.968Z,6.25
2023-03-06T14:00:51.981Z,10.18
2023-03-06T14:03:33.492Z,9.75
2023-03-06T14:06:00.073Z,10.07
2023-03-06T14:08:31.850Z,8.15
2023-03-06T14:11:03.767Z,6.50
2023-03-06T14:13:45.248Z,7.25
2023-03-06T14:16:18.005Z,9.25
2023-03-06T14:18:46.175Z,8.52
2023-03-06T14:21:13.663Z,14.82
2023-03-06T14:23:45.601Z,9.73
2023-03-06T14:26:23.468Z,11.25
2023-03-06T14:28:52.959Z,11.13
2023-03-06T14:31:20.979Z,10.65
2023-03-06T14:33:54.693Z,8.50
2023-03-06T14:36:22.636Z,8.15
2023-03-06T14:38:53.783Z,9.57
2023-03-06T14:41:24.313Z,7.38
2023-03-06T14:43:50.622Z,8.73
2023-03-06T14:46:19.250Z,8.27
2023-03-06T14:48:47.086Z,5.57
2023-03-06T14:51:15.839Z,4.85
2023-03-06T14:53:44.441Z,5.05
2023-03-06T14:56:13.941Z,5.40
2023-03-06T14:58:48.247Z,5.60
2023-03-06T15:01:14.990Z,5.57
2023-03-06T15:03:42.779Z,7.97
2023-03-06T15:06:16.656Z,5.80
2023-03-06T15:08:44.125Z,5.40
2023-03-06T15:11:10.437Z,8.07
2023-03-06T15:13:36.792Z,6.03
2023-03-06T15:16:05.147Z,7.60
2023-03-06T15:18:33.838Z,6.30
2023-03-06T15:21:10.826Z,6.65
2023-03-06T15:23:44.237Z,4.35
2023-03-06T15:26:21.446Z,4.40
2023-03-06T15:28:59.977Z,4.53
2023-03-06T15:31:36.976Z,6.40
2023-03-06T15:34:03.401Z,7.18
2023-03-06T15:36:32.008Z,6.57
2023-03-06T15:39:00.598Z,4.72
2023-03-06T15:41:30.331Z,6.32
2023-03-06T15:43:57.509Z,5.40
2023-03-06T15:46:23.775Z,7.45
2023-03-06T15:49:03.253Z,5.85
2023-03-06T15:51:30.489Z,7.85
2023-03-06T15:54:09.688Z,7.95
2023-03-06T15:56:42.812Z,6.63
2023-03-06T15:59:33.234Z,6.07
2023-03-06T16:02:04.525Z,5.18
2023-03-06T16:04:30.910Z,7.30
2023-03-06T16:06:57.253Z,12.23
2023-03-06T16:09:23.735Z,10.52
2023-03-06T16:11:50.005Z,11.18
2023-03-06T16:14:21.427Z,11.70
2023-03-06T16:16:48.098Z,11.05
2023-03-06T16:19:25.269Z,9.80
2023-03-06T16:21:52.444Z,11.40
2023-03-06T16:24:18.794Z,13.43
2023-03-06T16:26:45.925Z,13.65
2023-03-06T16:29:15.395Z,15.32
2023-03-06T16:31:41.778Z,15.25
2023-03-06T16:34:08.257Z,17.65
2023-03-06T16:36:34.739Z,18.88
2023-03-06T16:39:01.030Z,18.23
2023-03-06T16:41:27.636Z,18.35
2023-03-06T16:43:53.993Z,17.35
2023-03-06T16:46:22.149Z,19.27
2023-03-06T16:48:48.642Z,22.23
2023-03-06T16:51:15.984Z,19.50
2023-03-06T16:53:42.729Z,21.50
2023-03-06T16:56:13.146Z,20.50
2023-03-06T16:58:39.554Z,17.33
2023-03-06T17:01:06.302Z,20.65
2023-03-06T17:03:33.228Z,18.60
2023-03-06T17:05:59.581Z,15.77
2023-03-06T17:08:25.928Z,19.50
2023-03-06T17:10:52.304Z,18.75
2023-03-06T17:13:20.531Z,18.80
2023-03-06T17:15:56.835Z,19.70
2023-03-06T17:18:24.327Z,19.45
2023-03-06T17:20:51.817Z,26.52
2023-03-06T17:23:19.262Z,20.73
2023-03-06T17:25:45.593Z,18.23
2023-03-06T17:28:12.031Z,18.35
2023-03-06T17:30:38.471Z,17.55
2023-03-06T17:33:04.833Z,17.17
2023-03-06T17:35:31.651Z,17.70
2023-03-06T17:37:58.065Z,20.25
2023-03-06T17:40:24.358Z,16.73
2023-03-06T17:42:51.118Z,18.83
2023-03-06T17:45:17.522Z,21.75
2023-03-06T17:47:43.950Z,18.88
2023-03-06T17:50:10.580Z,15.35
2023-03-06T17:52:38.632Z,19.98
2023-03-06T17:55:05.677Z,19.08
2023-03-06T17:57:32.580Z,12.85
2023-03-06T17:59:59.104Z,17.25
2023-03-06T18:02:25.456Z,18.73
2023-03-06T18:04:51.846Z,19.88
2023-03-06T18:07:18.180Z,20.13
2023-03-06T18:09:44.545Z,17.65
2023-03-06T18:12:10.924Z,20.50
2023-03-06T18:14:37.308Z,19.65
2023-03-06T18:17:03.623Z,21.67
2023-03-06T18:19:30.472Z,20.30
2023-03-06T18:21:56.789Z,20.38
2023-03-06T18:24:23.402Z,21.38
2023-03-06T18:26:49.746Z,17.90
2023-03-06T18:29:16.166Z,22.52
2023-03-06T18:31:42.854Z,21.38
2023-03-06T18:34:10.937Z,22.27
2023-03-06T18:36:37.390Z,24.98
2023-03-06T18:39:05.921Z,26.98
2023-03-06T18:41:32.981Z,23.25
2023-03-06T18:44:00.278Z,26.67
2023-03-06T18:46:30.451Z,26.17
2023-03-06T18:48:56.746Z,23.27
2023-03-06T18:51:23.062Z,23.92
2023-03-06T18:53:49.333Z,20.95
2023-03-06T18:56:16.894Z,22.05
2023-03-06T18:58:43.865Z,29.00
2023-03-06T19:01:10.621Z,27.38
2023-03-06T19:03:37.112Z,27.38
2023-03-06T19:06:04.387Z,22.13
2023-03-06T19:08:30.733Z,24.45
2023-03-06T19:11:00.926Z,26.55
2023-03-06T19:13:27.260Z,21.83
2023-03-06T19:15:56.898Z,23.65
2023-03-06T19:18:23.751Z,26.17
2023-03-06T19:20:50.085Z,25.02
2023-03-06T19:23:16.365Z,24.13
2023-03-06T19:25:42.645Z,25.75
2023-03-06T19:28:09.412Z,28.60
2023-03-06T19:30:39.501Z,24.17
2023-03-06T19:33:05.861Z,29.92
2023-03-06T19:35:32.957Z,25.25
2023-03-06T19:37:59.284Z,28.98
2023-03-06T19:40:25.587Z,30.20
2023-03-06T19:42:51.901Z,22.65
2023-03-06T19:45:18.265Z,27.80
2023-03-06T19:47:44.624Z,24.38
2023-03-06T19:50:11.552Z,22.35
2023-03-06T19:52:39.306Z,27.63
2023-03-06T19:55:05.974Z,32.05
2023-03-06T19:57:32.945Z,32.42
2023-03-06T19:59:59.243Z,31.25
2023-03-06T20:02:27.225Z,31.27
2023-03-06T20:04:54.212Z,35.13
2023-03-06T20:07:20.898Z,30.58
2023-03-06T20:09:48.105Z,34.65
2023-03-06T20:12:14.772Z,30.77
2023-03-06T20:14:41.556Z,34.38
2023-03-06T20:17:08.382Z,40.95
2023-03-06T20:19:35.002Z,31.52
2023-03-06T20:22:01.547Z,31.85
2023-03-06T20:24:28.139Z,32.55
2023-03-06T20:26:57.482Z,35.42
2023-03-06T20:29:24.994Z,32.00
2023-03-06T20:31:55.917Z,36.17
2023-03-06T20:34:22.606Z,34.08
2023-03-06T20:36:49.112Z,31.38
2023-03-06T20:39:16.912Z,30.52
2023-03-06T20:41:43.671Z,31.27
2023-03-06T20:44:13.475Z,34.72
2023-03-06T20:46:40.187Z,33.60
2023-03-06T20:49:07.558Z,34.20
2023-03-06T20:51:36.074Z,35.50
2023-03-06T20:54:03.123Z,28.95
2023-03-06T20:56:30.452Z,26.55
2023-03-06T20:58:57.398Z,29.33
2023-03-06T21:01:25.059Z,32.60
2023-03-06T21:03:51.627Z,27.70
2023-03-06T21:06:18.508Z,33.30
2023-03-06T21:08:44.891Z,31.85
2023-03-06T21:11:11.267Z,34.83
2023-03-06T21:13:37.626Z,27.70
2023-03-06T21:16:05.776Z,33.80
2023-03-06T21:18:32.239Z,28.15
2023-03-06T21:20:58.788Z,31.08
2023-03-06T21:23:25.081Z,26.27
2023-03-06T21:25:52.232Z,31.88
2023-03-06T21:28:19.022Z,29.63
2023-03-06T21:30:45.654Z,30.48
2023-03-06T21:33:12.774Z,30.52
2023-03-06T21:35:42.469Z,38.28
2023-03-06T21:38:08.804Z,30.52
2023-03-06T21:40:35.187Z,31.02
2023-03-06T21:43:01.695Z,33.83
2023-03-06T21:45:30.327Z,29.50
2023-03-06T21:47:57.129Z,23.63
2023-03-06T21:50:23.851Z,31.73
2023-03-06T21:52:50.979Z,25.35
2023-03-06T21:55:17.745Z,25.45
2023-03-06T21:57:44.068Z,44.42
2023-03-06T22:00:14.405Z,33.75
2023-03-06T22:02:40.770Z,48.00
2023-03-06T22:05:07.311Z,30.25
2023-03-06T22:07:37.010Z,74.65
2023-03-06T22:10:04.063Z,26.15
2023-03-06T22:12:30.409Z,18.65
2023-03-06T22:14:56.986Z,16.52
2023-03-06T22:17:23.315Z,18.23
2023-03-06T22:19:49.607Z,17.13
2023-03-06T22:22:15.947Z,15.63
2023-03-06T22:24:42.243Z,16.55
2023-03-06T22:27:08.602Z,13.70
2023-03-06T22:29:35.053Z,19.23
2023-03-06T22:32:01.451Z,13.32
2023-03-06T22:34:27.889Z,14.43
2023-03-06T22:36:54.468Z,12.63
2023-03-06T22:39:20.794Z,15.43
2023-03-06T22:41:47.334Z,15.25
2023-03-06T22:44:17.748Z,11.10
2023-03-06T22:46:44.323Z,9.63
2023-03-06T22:49:11.548Z,8.70
2023-03-06T22:51:38.582Z,10.95
2023-03-06T22:54:05.286Z,10.80
2023-03-06T22:56:31.586Z,9.82
2023-03-06T22:58:57.928Z,12.95
2023-03-06T23:01:26.248Z,8.45
2023-03-06T23:03:53.903Z,7.45
2023-03-06T23:06:20.252Z,7.78
2023-03-06T23:08:50.590Z,9.20
2023-03-06T23:11:17.742Z,8.57
2023-03-06T23:13:43.976Z,8.25
2023-03-06T23:16:10.625Z,7.10
2023-03-06T23:18:37.334Z,6.47
2023-03-06T23:21:13.746Z,10.50
2023-03-06T23:23:40.062Z,13.52
2023-03-06T23:26:07.288Z,6.63
2023-03-06T23:28:34.791Z,5.90
2023-03-06T23:31:05.868Z,9.77
2023-03-06T23:33:32.413Z,9.25
2023-03-06T23:36:02.356Z,6.70
2023-03-06T23:38:28.987Z,8.50
2023-03-06T23:40:55.302Z,12.77
2023-03-06T23:43:21.796Z,8.63
2023-03-06T23:45:54.896Z,10.30
2023-03-06T23:48:21.296Z,8.43
2023-03-06T23:50:47.628Z,10.80
2023-03-06T23:53:14.644Z,12.93
2023-03-06T23:55:41.620Z,20.00
2023-03-06T23:58:08.249Z,11.02
